Time;durP1;ratioP1;P1;durP2;ratioP2;P2;SDS_P1;SDS_P2;PMS_P1;PMS_P2;Temp;Humidity;BMP_temperature;BMP_pressure;BME280_temperature;BME280_humidity;BME280_pressure;Samples;Min_cycle;Max_cycle;Signal;HPM_P1;HPM_P2
2022/05/03 00:01:03;;;;;;;7.47;5.00;;;8.50;99.90;;;;;;5097853;28;20024;-82
2022/05/03 00:03:43;;;;;;;6.10;4.43;;;8.60;99.90;;;;;;5098044;28;20028;-81
2022/05/03 00:06:22;;;;;;;6.10;4.13;;;8.60;99.90;;;;;;5097941;28;20034;-81
2022/05/03 00:09:03;;;;;;;6.53;4.55;;;8.70;99.90;;;;;;5116577;28;20024;-82
2022/05/03 00:11:45;;;;;;;6.70;4.03;;;8.70;99.90;;;;;;5098023;28;20020;-81
2022/05/03 00:14:41;;;;;;;5.32;3.67;;;8.70;99.90;;;;;;5099102;28;20069;-81
2022/05/03 00:17:08;;;;;;;6.40;4.03;;;8.60;99.90;;;;;;5107201;28;20047;-81
2022/05/03 00:19:34;;;;;;;5.18;3.55;;;8.60;99.90;;;;;;5115792;28;20098;-81
2022/05/03 00:22:00;;;;;;;5.00;3.63;;;8.60;99.90;;;;;;5096569;28;20458;-81
2022/05/03 00:24:26;;;;;;;7.60;3.75;;;8.50;99.90;;;;;;5115635;28;20027;-82
2022/05/03 00:26:52;;;;;;;4.53;3.30;;;8.50;99.90;;;;;;5116115;28;20384;-81
2022/05/03 00:29:18;;;;;;;4.97;3.40;;;8.50;99.90;;;;;;5116204;28;20020;-81
2022/05/03 00:31:44;;;;;;;6.18;3.60;;;8.50;99.90;;;;;;5097562;28;20023;-81
2022/05/03 00:34:10;;;;;;;6.53;3.42;;;8.50;99.90;;;;;;5115607;28;20036;-82
2022/05/03 00:36:36;;;;;;;5.80;3.70;;;8.50;99.90;;;;;;5115957;28;20157;-81
2022/05/03 00:39:02;;;;;;;6.00;3.70;;;8.40;99.90;;;;;;5115544;28;20059;-81
2022/05/03 00:41:46;;;;;;;7.20;3.67;;;8.40;99.90;;;;;;5115716;28;20035;-81
2022/05/03 00:44:56;;;;;;;5.28;3.65;;;8.40;99.90;;;;;;5097253;28;20035;-81
2022/05/03 00:47:37;;;;;;;5.07;3.10;;;8.40;99.90;;;;;;5107614;28;20074;-81
2022/05/03 00:50:08;;;;;;;5.30;3.53;;;8.30;99.90;;;;;;5115617;28;20098;-82
2022/05/03 00:52:42;;;;;;;5.68;3.55;;;8.30;99.90;;;;;;5116349;28;20027;-81
2022/05/03 00:55:20;;;;;;;8.70;3.85;;;8.30;99.90;;;;;;5116464;28;20051;-83
2022/05/03 00:58:09;;;;;;;6.63;4.28;;;8.30;99.90;;;;;;5083871;28;20036;-81
2022/05/03 01:00:42;;;;;;;5.80;4.10;;;8.30;99.90;;;;;;5116510;28;20034;-82
2022/05/03 01:03:19;;;;;;;6.78;4.03;;;8.20;99.90;;;;;;5097354;28;20019;-81
2022/05/03 01:06:06;;;;;;;6.20;3.67;;;8.10;99.90;;;;;;5115626;28;20554;-81
2022/05/03 01:08:56;;;;;;;6.13;3.97;;;8.10;99.90;;;;;;5117223;28;20073;-81
2022/05/03 01:11:53;;;;;;;7.63;3.85;;;8.00;99.90;;;;;;5077479;28;20020;-81
2022/05/03 01:14:29;;;;;;;6.93;4.43;;;8.00;99.90;;;;;;5095810;28;20020;-81
2022/05/03 01:17:17;;;;;;;6.32;4.45;;;7.90;99.90;;;;;;5114173;28;20047;-81
2022/05/03 01:19:45;;;;;;;5.60;3.67;;;7.80;99.90;;;;;;5097600;28;20028;-81
2022/05/03 01:22:29;;;;;;;6.53;4.40;;;7.80;99.90;;;;;;5097924;28;20084;-81
2022/05/03 01:25:14;;;;;;;5.80;4.03;;;7.60;99.90;;;;;;5115273;28;20497;-82
2022/05/03 01:28:15;;;;;;;5.60;3.97;;;7.60;99.90;;;;;;5115664;28;20034;-81
2022/05/03 01:30:47;;;;;;;6.45;3.72;;;7.60;99.90;;;;;;5116031;28;20395;-81
2022/05/03 01:33:29;;;;;;;5.38;3.40;;;7.50;99.90;;;;;;5114961;28;20045;-81
2022/05/03 01:35:58;;;;;;;5.60;3.60;;;7.40;99.90;;;;;;5115503;28;20023;-81
2022/05/03 01:39:03;;;;;;;12.73;6.32;;;7.20;99.90;;;;;;5115828;28;20103;-81
2022/05/03 01:41:54;;;;;;;14.77;7.95;;;7.10;99.90;;;;;;5114091;28;20019;-81
2022/05/03 01:44:37;;;;;;;11.68;6.90;;;6.80;99.90;;;;;;5115771;28;20028;-81
2022/05/03 01:47:20;;;;;;;10.32;6.20;;;6.80;99.90;;;;;;5114471;28;20019;-81
2022/05/03 01:50:20;;;;;;;7.30;4.35;;;6.80;99.90;;;;;;5115056;28;20056;-81
2022/05/03 01:53:16;;;;;;;6.75;3.85;;;6.80;99.90;;;;;;5096824;28;20020;-81
2022/05/03 01:55:55;;;;;;;5.53;3.50;;;6.80;99.90;;;;;;5077148;28;20035;-81
2022/05/03 01:58:36;;;;;;;5.53;3.20;;;6.90;99.90;;;;;;5088957;28;20066;-81
2022/05/03 02:01:11;;;;;;;3.90;2.75;;;6.90;99.90;;;;;;5115185;28;20024;-81
2022/05/03 02:04:06;;;;;;;3.55;2.58;;;6.90;99.90;;;;;;5096406;28;20488;-81
2022/05/03 02:06:54;;;;;;;6.70;3.25;;;7.00;99.90;;;;;;5096821;28;20023;-81
2022/05/03 02:09:30;;;;;;;4.78;3.05;;;7.00;99.90;;;;;;5114985;28;20034;-81
2022/05/03 02:12:13;;;;;;;4.63;3.00;;;7.00;99.90;;;;;;5114751;28;20069;-81
2022/05/03 02:14:48;;;;;;;5.05;2.88;;;7.00;99.90;;;;;;5096120;28;20024;-83
2022/05/03 02:17:13;;;;;;;6.53;3.83;;;7.00;99.90;;;;;;5086841;28;20058;-81
2022/05/03 02:20:11;;;;;;;9.52;4.88;;;7.00;99.90;;;;;;5096235;28;20035;-81
2022/05/03 02:22:58;;;;;;;12.18;5.32;;;7.00;99.90;;;;;;5114738;28;20077;-81
2022/05/03 02:25:57;;;;;;;11.52;4.90;;;7.00;99.90;;;;;;5114214;28;20523;-81
2022/05/03 02:28:42;;;;;;;7.53;4.00;;;6.90;99.90;;;;;;5114403;28;20068;-81
2022/05/03 02:31:13;;;;;;;7.07;3.40;;;6.80;99.90;;;;;;5100120;28;20043;-81
2022/05/03 02:33:48;;;;;;;9.32;4.57;;;6.80;99.90;;;;;;5096245;28;20096;-81
2022/05/03 02:36:16;;;;;;;11.63;6.30;;;6.80;99.90;;;;;;5114801;28;20016;-80
2022/05/03 02:38:54;;;;;;;10.73;5.25;;;6.80;99.90;;;;;;5096302;28;20020;-81
2022/05/03 02:41:22;;;;;;;9.05;4.75;;;6.70;99.90;;;;;;5096215;28;20020;-80
2022/05/03 02:43:50;;;;;;;6.43;3.75;;;6.70;99.90;;;;;;5114672;28;20509;-81
2022/05/03 02:46:43;;;;;;;5.72;3.08;;;6.70;99.90;;;;;;5118778;28;20008;-81
2022/05/03 02:49:18;;;;;;;4.80;3.15;;;6.70;99.90;;;;;;5100855;28;20066;-81
2022/05/03 02:52:07;;;;;;;4.88;3.00;;;6.60;99.90;;;;;;5118751;28;20360;-81
2022/05/03 02:54:40;;;;;;;4.97;3.50;;;6.60;99.90;;;;;;5100297;28;20386;-81
2022/05/03 02:57:30;;;;;;;4.25;2.80;;;6.60;99.90;;;;;;5100084;28;20498;-81
2022/05/03 03:03:20;;;;;;;5.68;3.13;;;6.60;99.90;;;;;;5116700;28;20445;-81
2022/05/03 03:05:53;;;;;;;6.60;3.33;;;6.50;99.90;;;;;;5117968;28;20035;-81
2022/05/03 03:08:21;;;;;;;7.80;3.72;;;6.30;99.90;;;;;;5117914;28;20023;-81
2022/05/03 03:10:51;;;;;;;5.05;3.30;;;6.30;99.90;;;;;;5117114;28;20467;-81
2022/05/03 03:14:03;;;;;;;4.47;3.20;;;6.20;99.90;;;;;;5117069;28;20038;-81
2022/05/03 03:16:30;;;;;;;;;;;6.20;99.90;;;;;;5118266;28;20536;-81
2022/05/03 03:18:58;;;;;;;4.97;2.97;;;6.20;99.90;;;;;;5117601;28;19903;-81
2022/05/03 03:21:31;;;;;;;5.95;4.18;;;6.30;99.90;;;;;;5108763;28;20048;-81
2022/05/03 03:23:59;;;;;;;6.40;3.80;;;6.30;99.90;;;;;;5094167;28;20032;-81
2022/05/03 03:26:28;;;;;;;6.13;3.22;;;6.30;99.90;;;;;;5117601;28;20019;-81
2022/05/03 03:28:58;;;;;;;4.57;2.88;;;6.30;99.90;;;;;;5116813;28;20028;-80
2022/05/03 03:31:25;;;;;;;4.75;3.10;;;6.30;99.90;;;;;;5099225;28;20023;-80
2022/05/03 03:33:55;;;;;;;4.72;3.25;;;6.20;99.90;;;;;;5115015;28;20031;-81
2022/05/03 03:36:23;;;;;;;4.87;2.93;;;6.20;99.90;;;;;;5118669;28;20427;-81
2022/05/03 03:38:49;;;;;;;4.20;2.63;;;6.20;99.90;;;;;;5118046;28;20016;-80
2022/05/03 03:41:15;;;;;;;3.22;2.40;;;6.20;99.90;;;;;;5099144;28;20036;-80
2022/05/03 03:43:41;;;;;;;6.72;2.45;;;6.10;99.90;;;;;;5101483;28;20039;-80
2022/05/03 03:46:10;;;;;;;4.72;2.78;;;6.10;99.90;;;;;;5101844;28;20028;-80
2022/05/03 03:48:36;;;;;;;4.20;2.60;;;6.10;99.90;;;;;;5115270;28;20020;-80
2022/05/03 03:51:04;;;;;;;5.20;2.53;;;6.00;99.90;;;;;;5115618;28;20084;-80
2022/05/03 03:53:30;;;;;;;4.57;2.15;;;5.90;99.90;;;;;;5116944;28;20059;-80
2022/05/03 03:55:57;;;;;;;3.30;2.35;;;5.90;99.90;;;;;;5090604;28;20023;-80
2022/05/03 03:58:23;;;;;;;5.07;2.70;;;5.90;99.90;;;;;;5098274;28;20024;-80
2022/05/03 04:00:50;;;;;;;6.45;2.97;;;5.90;99.90;;;;;;5098451;28;20028;-79
2022/05/03 04:03:16;;;;;;;5.53;3.63;;;5.90;99.90;;;;;;5116966;28;20098;-79
2022/05/03 04:05:44;;;;;;;5.20;3.05;;;5.90;99.90;;;;;;5117665;28;20098;-79
2022/05/03 04:08:09;;;;;;;4.50;2.92;;;5.90;99.90;;;;;;5117985;28;20020;-79
2022/05/03 04:10:35;;;;;;;6.20;3.50;;;5.90;99.90;;;;;;5117588;28;20030;-81
2022/05/03 04:13:01;;;;;;;13.50;6.63;;;5.90;99.90;;;;;;5099122;28;20053;-82
2022/05/03 04:15:26;;;;;;;80.85;35.72;;;5.80;99.90;;;;;;5117506;28;20024;-81
2022/05/03 04:17:53;;;;;;;42.15;19.92;;;5.80;99.90;;;;;;5115231;28;20034;-80
2022/05/03 04:20:18;;;;;;;27.98;11.38;;;5.80;99.90;;;;;;5115764;28;20026;-81
2022/05/03 04:22:45;;;;;;;41.47;18.13;;;5.80;99.90;;;;;;5115594;28;20036;-81
2022/05/03 04:25:11;;;;;;;81.57;36.22;;;5.80;99.90;;;;;;5116182;28;20027;-81
2022/05/03 04:27:37;;;;;;;72.50;32.30;;;5.80;99.90;;;;;;5115951;28;20480;-81
2022/05/03 04:30:04;;;;;;;36.67;17.15;;;5.80;99.90;;;;;;5116279;28;20016;-81
2022/05/03 04:32:31;;;;;;;17.38;9.70;;;5.70;99.90;;;;;;5116080;28;20513;-81
2022/05/03 04:34:58;;;;;;;8.05;4.90;;;5.80;99.90;;;;;;5115970;28;20372;-81
2022/05/03 04:37:24;;;;;;;6.13;4.18;;;5.80;99.90;;;;;;5116123;28;20023;-81
2022/05/03 04:39:50;;;;;;;5.18;3.20;;;5.70;99.90;;;;;;5116505;28;20149;-81
2022/05/03 04:42:16;;;;;;;6.60;3.33;;;5.70;99.90;;;;;;5115886;28;20402;-81
2022/05/03 04:44:42;;;;;;;3.72;2.70;;;5.70;99.90;;;;;;5115920;28;20129;-81
2022/05/03 04:47:07;;;;;;;8.57;3.30;;;5.70;99.90;;;;;;5115941;28;20099;-81
2022/05/03 04:49:33;;;;;;;4.80;2.90;;;5.80;99.90;;;;;;5115573;28;20092;-80
2022/05/03 04:51:59;;;;;;;4.20;2.63;;;5.80;99.90;;;;;;5115731;28;20016;-81
2022/05/03 04:54:25;;;;;;;4.75;2.97;;;5.80;99.90;;;;;;5116274;28;20027;-80
2022/05/03 04:57:00;;;;;;;5.93;3.25;;;5.80;99.90;;;;;;5115646;28;20085;-80
2022/05/03 04:59:26;;;;;;;5.88;3.17;;;5.90;99.90;;;;;;5097474;28;20028;-81
2022/05/03 05:01:51;;;;;;;4.60;2.75;;;5.90;99.90;;;;;;5097396;28;20077;-81
2022/05/03 05:04:17;;;;;;;6.35;3.50;;;5.80;99.90;;;;;;5115172;28;20552;-81
2022/05/03 05:06:43;;;;;;;4.80;3.28;;;5.90;99.90;;;;;;5096824;28;20055;-81
2022/05/03 05:09:09;;;;;;;5.15;2.72;;;5.90;99.90;;;;;;5115954;28;20528;-81
2022/05/03 05:11:34;;;;;;;5.30;2.85;;;5.90;99.90;;;;;;5115724;28;20023;-81
2022/05/03 05:14:00;;;;;;;6.43;3.35;;;5.90;99.90;;;;;;5115679;28;20073;-81
2022/05/03 05:16:26;;;;;;;5.15;3.03;;;5.90;99.90;;;;;;5115446;28;20444;-80
2022/05/03 05:18:51;;;;;;;3.70;2.78;;;5.90;99.90;;;;;;5097462;28;20332;-81
2022/05/03 05:21:17;;;;;;;3.83;2.60;;;5.90;99.90;;;;;;5115601;28;20023;-81
2022/05/03 05:23:43;;;;;;;4.32;2.70;;;5.90;99.90;;;;;;5115378;28;20072;-81
2022/05/03 05:26:08;;;;;;;5.03;2.90;;;5.90;99.90;;;;;;5115521;28;20096;-81
2022/05/03 05:28:34;;;;;;;5.50;2.85;;;5.90;99.90;;;;;;5115534;28;20047;-81
2022/05/03 05:31:00;;;;;;;4.70;2.72;;;5.90;99.90;;;;;;5115440;28;20027;-81
2022/05/03 05:33:25;;;;;;;4.22;2.53;;;5.90;99.90;;;;;;5115306;28;20494;-80
2022/05/03 05:35:52;;;;;;;6.32;3.30;;;5.90;99.90;;;;;;5115244;28;20072;-81
2022/05/03 05:38:18;;;;;;;8.45;4.65;;;5.90;99.90;;;;;;5115603;28;20171;-81
2022/05/03 05:40:46;;;;;;;26.23;12.38;;;6.00;99.90;;;;;;5115378;28;20412;-81
2022/05/03 05:43:12;;;;;;;27.63;11.63;;;6.00;99.90;;;;;;5116302;28;20027;-81
2022/05/03 05:45:38;;;;;;;20.67;10.18;;;6.10;99.90;;;;;;5118348;28;20027;-81
2022/05/03 05:48:04;;;;;;;12.77;7.03;;;6.10;99.90;;;;;;5119990;28;20371;-81
2022/05/03 05:50:30;;;;;;;10.73;5.07;;;6.20;99.90;;;;;;5117612;28;20026;-81
2022/05/03 05:55:42;;;;;;;6.00;4.07;;;6.30;99.90;;;;;;5118510;28;20403;-81
2022/05/03 05:58:08;;;;;;;5.35;3.65;;;6.30;99.90;;;;;;5118613;28;20089;-81
2022/05/03 06:00:34;;;;;;;6.43;3.90;;;6.40;99.90;;;;;;5120184;28;20023;-81
2022/05/03 06:03:00;;;;;;;7.18;4.43;;;6.40;99.90;;;;;;5121095;28;20049;-81
2022/05/03 06:05:26;;;;;;;6.63;3.92;;;6.50;99.90;;;;;;5116773;28;20099;-81
2022/05/03 06:07:53;;;;;;;8.98;5.00;;;6.60;99.90;;;;;;5117226;28;20020;-81
2022/05/03 06:10:19;;;;;;;8.05;4.93;;;6.70;99.90;;;;;;5097862;28;20054;-81
2022/05/03 06:12:46;;;;;;;10.57;5.15;;;6.80;99.90;;;;;;5101132;28;20036;-81
2022/05/03 06:15:12;;;;;;;9.13;5.57;;;6.90;99.90;;;;;;5100701;28;20026;-81
2022/05/03 06:17:40;;;;;;;9.35;5.93;;;7.00;99.90;;;;;;5100201;28;20023;-81
2022/05/03 06:20:07;;;;;;;8.05;5.30;;;7.10;99.90;;;;;;5118770;28;20019;-81
2022/05/03 06:22:33;;;;;;;7.38;4.68;;;7.30;99.90;;;;;;5116135;28;20471;-81
2022/05/03 06:24:59;;;;;;;7.47;4.97;;;7.40;99.90;;;;;;5114588;28;20026;-81
2022/05/03 06:27:24;;;;;;;7.63;5.32;;;7.50;99.90;;;;;;5115127;28;20016;-81
2022/05/03 06:29:50;;;;;;;7.57;5.22;;;7.60;99.90;;;;;;5114779;28;20019;-81
2022/05/03 06:32:16;;;;;;;7.43;4.88;;;7.70;99.90;;;;;;5115687;28;20535;-81
2022/05/03 06:34:42;;;;;;;9.57;4.93;;;7.80;99.90;;;;;;5114351;28;20027;-81
2022/05/03 06:37:07;;;;;;;6.45;4.32;;;7.90;99.90;;;;;;5115565;28;20360;-81
2022/05/03 06:39:36;;;;;;;7.95;5.57;;;8.00;99.90;;;;;;5096497;28;20028;-81
2022/05/03 06:42:06;;;;;;;8.70;5.00;;;8.10;99.90;;;;;;5114574;28;20065;-81
2022/05/03 06:44:31;;;;;;;8.15;5.45;;;8.30;99.90;;;;;;5118186;28;20047;-81
2022/05/03 06:46:57;;;;;;;8.15;5.10;;;8.40;99.90;;;;;;5118295;28;20073;-81
2022/05/03 06:49:23;;;;;;;10.32;5.70;;;8.50;99.90;;;;;;5096035;28;20533;-81
2022/05/03 06:51:49;;;;;;;7.72;5.20;;;8.70;99.90;;;;;;5114955;28;20028;-81
2022/05/03 06:54:15;;;;;;;8.38;5.63;;;8.90;99.90;;;;;;5119157;28;20024;-81
2022/05/03 06:56:40;;;;;;;8.40;5.55;;;9.00;99.90;;;;;;5118415;28;20076;-81
2022/05/03 06:59:07;;;;;;;8.82;5.50;;;9.20;99.90;;;;;;5099085;28;20024;-81
2022/05/03 07:01:33;;;;;;;6.18;4.43;;;9.30;99.90;;;;;;5115557;28;20494;-81
2022/05/03 07:03:58;;;;;;;6.75;4.90;;;9.50;99.90;;;;;;5096372;28;20028;-81
2022/05/03 07:06:24;;;;;;;8.25;5.55;;;9.70;99.90;;;;;;5115440;28;20015;-81
2022/05/03 07:08:50;;;;;;;11.18;5.55;;;9.90;99.90;;;;;;5097242;28;20035;-81
2022/05/03 07:11:16;;;;;;;8.07;5.22;;;10.00;99.90;;;;;;5115271;28;20020;-81
2022/05/03 07:13:43;;;;;;;11.63;5.25;;;10.20;99.90;;;;;;5116019;28;20495;-81
2022/05/03 07:16:09;;;;;;;8.82;4.28;;;10.30;99.90;;;;;;5115284;28;20016;-81
2022/05/03 07:24:17;;;;;;;7.55;4.75;;;10.80;99.90;;;;;;5114244;28;20026;-81
2022/05/03 07:26:42;;;;;;;6.00;4.20;;;11.00;99.90;;;;;;5114025;28;20016;-81
2022/05/03 07:29:08;;;;;;;8.70;4.53;;;11.10;99.90;;;;;;5114003;28;20055;-81
2022/05/03 07:31:34;;;;;;;7.82;4.63;;;11.20;99.90;;;;;;5117670;28;20032;-81
2022/05/03 07:33:59;;;;;;;5.82;3.58;;;11.30;99.90;;;;;;5099627;28;20458;-81
2022/05/03 07:36:28;;;;;;;5.15;3.67;;;11.50;99.90;;;;;;5099356;28;20024;-81
2022/05/03 07:38:53;;;;;;;5.43;3.80;;;11.60;99.90;;;;;;5117535;28;20062;-81
2022/05/03 07:41:19;;;;;;;6.20;4.18;;;11.70;99.90;;;;;;5098992;28;20475;-81
2022/05/03 07:43:44;;;;;;;4.93;3.70;;;11.90;99.90;;;;;;5117616;28;20024;-81
2022/05/03 07:46:10;;;;;;;7.45;3.95;;;12.00;99.90;;;;;;5117525;28;20072;-82
2022/05/03 07:48:36;;;;;;;6.65;3.28;;;12.20;99.90;;;;;;5117591;28;20059;-81
2022/05/03 07:51:02;;;;;;;6.35;3.53;;;12.30;99.90;;;;;;5116917;28;20019;-81
2022/05/03 07:53:27;;;;;;;5.57;3.45;;;12.50;99.90;;;;;;5117289;28;20031;-82
2022/05/03 07:55:53;;;;;;;5.60;3.50;;;12.60;99.90;;;;;;5117224;28;20391;-82
2022/05/03 07:58:20;;;;;;;5.28;3.50;;;12.60;99.90;;;;;;5098930;28;20476;-82
2022/05/03 08:00:46;;;;;;;5.22;3.72;;;12.80;99.90;;;;;;5098942;28;20023;-82
2022/05/03 08:03:13;;;;;;;5.03;3.33;;;12.90;99.90;;;;;;5117441;28;20407;-82
2022/05/03 08:05:39;;;;;;;9.63;3.72;;;13.00;99.90;;;;;;5117120;28;20023;-82
2022/05/03 08:08:05;;;;;;;4.97;3.05;;;13.20;99.90;;;;;;5117845;28;20024;-82
2022/05/03 08:10:30;;;;;;;5.30;2.90;;;13.30;99.90;;;;;;5119451;28;20042;-82
2022/05/03 08:12:56;;;;;;;6.40;3.47;;;13.40;99.90;;;;;;5117468;28;20103;-81
2022/05/03 08:15:22;;;;;;;5.80;2.88;;;13.60;99.90;;;;;;5116960;28;20019;-82
2022/05/03 08:17:48;;;;;;;6.20;3.10;;;13.70;99.90;;;;;;5099123;28;20027;-82
2022/05/03 08:20:15;;;;;;;4.63;3.17;;;13.80;99.90;;;;;;5116930;28;20097;-82
2022/05/03 08:22:41;;;;;;;6.60;3.10;;;13.90;99.90;;;;;;5117009;28;20035;-82
2022/05/03 08:25:08;;;;;;;4.80;3.00;;;14.10;99.90;;;;;;5117392;28;20065;-82
2022/05/03 08:27:36;;;;;;;6.65;2.90;;;14.20;99.90;;;;;;5117386;28;20020;-82
2022/05/03 08:30:03;;;;;;;4.65;3.00;;;14.40;99.90;;;;;;5098533;28;20024;-82
2022/05/03 08:32:28;;;;;;;6.18;3.45;;;14.50;97.40;;;;;;5116937;28;20027;-82
2022/05/03 08:34:54;;;;;;;6.85;3.35;;;14.60;97.80;;;;;;5116837;28;20031;-82
2022/05/03 08:42:49;;;;;;;4.57;2.65;;;15.00;96.70;;;;;;5116261;28;20042;-82
2022/05/03 08:45:14;;;;;;;6.63;3.33;;;15.10;97.50;;;;;;5098114;28;20475;-82
2022/05/03 08:47:41;;;;;;;6.13;3.00;;;15.10;97.10;;;;;;5116938;28;20031;-82
2022/05/03 08:50:11;;;;;;;4.40;2.72;;;15.30;96.80;;;;;;5116330;28;20020;-81
2022/05/03 08:52:54;;;;;;;7.05;3.60;;;15.30;97.50;;;;;;5116872;28;20049;-82
2022/05/03 08:55:20;;;;;;;4.72;3.53;;;15.40;98.30;;;;;;5098181;28;20027;-81
2022/05/03 08:57:46;;;;;;;4.97;3.40;;;15.50;96.30;;;;;;5097533;28;20024;-81
2022/05/03 09:00:13;;;;;;;6.82;3.17;;;15.60;96.80;;;;;;5116123;28;20387;-82
2022/05/03 09:02:44;;;;;;;5.43;3.55;;;15.70;96.60;;;;;;5117049;28;20023;-81
2022/05/03 09:05:11;;;;;;;10.90;4.00;;;15.80;97.10;;;;;;5116101;28;20027;-81
2022/05/03 09:07:37;;;;;;;5.30;3.80;;;15.90;98.30;;;;;;5116081;28;20098;-81
2022/05/03 09:10:37;;;;;;;9.48;5.32;;;16.00;95.90;;;;;;5116136;28;20054;-82
2022/05/03 09:13:18;;;;;;;6.45;3.47;;;16.10;97.10;;;;;;5097829;28;20024;-82
2022/05/03 09:15:47;;;;;;;5.00;3.30;;;16.30;96.10;;;;;;5116352;28;20038;-81
2022/05/03 09:18:31;;;;;;;6.57;3.35;;;16.40;94.60;;;;;;5115179;28;20496;-81
2022/05/03 09:23:47;;;;;;;5.07;3.00;;;16.50;92.30;;;;;;5115623;28;20486;-81
2022/05/03 09:26:14;;;;;;;5.82;2.88;;;16.70;90.70;;;;;;5115284;28;20484;-81
2022/05/03 09:28:47;;;;;;;4.90;2.88;;;16.80;90.00;;;;;;5096772;28;20038;-81
2022/05/03 09:31:26;;;;;;;7.53;2.88;;;16.90;88.20;;;;;;5115546;28;20034;-81
2022/05/03 09:33:52;;;;;;;5.35;2.80;;;17.00;89.20;;;;;;5115292;28;20019;-81
2022/05/03 09:36:17;;;;;;;5.43;3.22;;;17.00;86.90;;;;;;5096402;28;20026;-81
2022/05/03 09:38:45;;;;;;;6.53;2.60;;;17.20;86.50;;;;;;5096672;28;20380;-81
2022/05/03 09:41:15;;;;;;;3.95;2.50;;;17.30;82.80;;;;;;5096518;28;20031;-81
2022/05/03 09:44:05;;;;;;;4.75;2.92;;;17.30;83.60;;;;;;5115011;28;20059;-81
2022/05/03 09:46:52;;;;;;;14.10;3.63;;;17.50;85.70;;;;;;5114909;28;20027;-81
2022/05/03 09:49:35;;;;;;;6.22;2.97;;;17.70;86.30;;;;;;5096225;28;20023;-81
2022/05/03 09:52:01;;;;;;;5.57;3.47;;;17.70;85.30;;;;;;5114582;28;20019;-81
2022/05/03 09:54:28;;;;;;;3.83;2.60;;;17.90;84.00;;;;;;5096382;28;20080;-81
2022/05/03 09:56:54;;;;;;;4.25;2.25;;;18.10;84.20;;;;;;5114459;28;20020;-81
2022/05/03 09:59:20;;;;;;;6.57;2.90;;;18.20;80.70;;;;;;5114473;28;20035;-81
2022/05/03 10:01:47;;;;;;;4.45;2.30;;;18.30;79.60;;;;;;5114446;28;20023;-81
2022/05/03 10:04:13;;;;;;;;;;;18.50;78.20;;;;;;5096052;28;20122;-81
2022/05/03 10:06:39;;;;;;;;;;;18.60;79.10;;;;;;5096122;28;20088;-81
2022/05/03 10:09:04;;;;;;;;;;;18.80;80.70;;;;;;5114178;28;20034;-81
2022/05/03 10:11:32;;;;;;;;;;;18.90;78.40;;;;;;5114795;28;20252;-81
2022/05/03 10:13:57;;;;;;;;;;;19.00;71.70;;;;;;5114783;28;19939;-81
2022/05/03 10:22:01;;;;;;;;;;;19.30;79.70;;;;;;5114920;28;20369;-81
2022/05/03 10:24:27;;;;;;;;;;;19.50;72.20;;;;;;5096441;28;19907;-81
2022/05/03 10:27:02;;;;;;;;;;;19.70;72.30;;;;;;5096590;28;20317;-80
2022/05/03 10:29:35;;;;;;;;;;;19.80;61.80;;;;;;5114696;28;19926;-81
2022/05/03 10:32:07;;;;;;;;;;;19.90;63.00;;;;;;5096383;28;20252;-81
2022/05/03 10:34:39;;;;;;;;;;;20.10;62.00;;;;;;5114407;28;19911;-80
2022/05/03 10:37:05;;;;;;;;;;;20.20;60.70;;;;;;5115336;28;19904;-81
2022/05/03 10:39:31;;;;;;;;;;;20.20;61.00;;;;;;5114976;28;19954;-81
2022/05/03 10:42:01;;;;;;;;;;;20.30;62.50;;;;;;5114580;28;19913;-80
2022/05/03 10:44:46;;;;;;;;;;;20.30;61.50;;;;;;5114925;28;19912;-80
2022/05/03 10:47:13;;;;;;;;;;;20.10;61.40;;;;;;5096443;28;19954;-80
2022/05/03 10:49:57;;;;;;;;;;;20.00;61.30;;;;;;5114803;28;20002;-80
2022/05/03 10:52:23;;;;;;;;;;;20.00;62.30;;;;;;5115054;28;19908;-80
2022/05/03 10:55:06;;;;;;;;;;;19.90;60.80;;;;;;5114784;28;19949;-80
2022/05/03 10:57:32;;;;;;;;;;;19.90;61.10;;;;;;5114936;28;19904;-80
2022/05/03 10:59:57;;;;;;;;;;;20.00;58.90;;;;;;5115272;28;20397;-80
2022/05/03 11:02:23;;;;;;;;;;;20.00;58.80;;;;;;5116258;28;20308;-80
2022/05/03 11:05:07;;;;;;;;;;;20.10;61.90;;;;;;5114944;28;19912;-79
2022/05/03 11:07:33;;;;;;;;;;;20.10;61.10;;;;;;5118725;28;20359;-80
2022/05/03 11:10:19;;;;;;;;;;;20.00;60.20;;;;;;5118784;28;20102;-80
2022/05/03 11:12:51;;;;;;;;;;;19.80;58.80;;;;;;5118471;28;19910;-81
2022/05/03 11:15:16;;;;;;;;;;;19.60;63.10;;;;;;5118294;28;19911;-80
2022/05/03 11:17:42;;;;;;;;;;;19.50;63.70;;;;;;5118392;28;19903;-80
2022/05/03 11:20:08;;;;;;;;;;;19.50;61.40;;;;;;5118246;28;19907;-80
2022/05/03 11:22:35;;;;;;;;;;;19.40;61.60;;;;;;5105368;28;19911;-81
2022/05/03 11:25:06;;;;;;;;;;;19.50;59.70;;;;;;5099228;28;20001;-81
2022/05/03 11:27:32;;;;;;;;;;;19.60;64.10;;;;;;5098911;28;19911;-81
2022/05/03 11:29:59;;;;;;;;;;;19.90;58.30;;;;;;5097434;28;19947;-80
2022/05/03 11:32:28;;;;;;;;;;;20.20;57.30;;;;;;5098345;28;20364;-80
2022/05/03 11:35:00;;;;;;;;;;;20.50;56.10;;;;;;5095875;28;19950;-79
2022/05/03 11:37:26;;;;;;;;;;;20.70;56.40;;;;;;5097770;28;19904;-81
2022/05/03 11:39:52;;;;;;;;;;;20.80;56.50;;;;;;5099714;28;20386;-81
2022/05/03 11:42:21;;;;;;;;;;;20.80;57.80;;;;;;5118123;28;19911;-81
2022/05/03 11:44:46;;;;;;;;;;;20.90;59.10;;;;;;5119012;28;19908;-81
2022/05/03 11:47:13;;;;;;;;;;;20.80;58.50;;;;;;5100185;28;19904;-81
2022/05/03 11:49:39;;;;;;;;;;;20.80;61.20;;;;;;5118564;28;19908;-83
2022/05/03 11:57:35;;;;;;;;;;;20.60;58.70;;;;;;5118467;28;20278;-81
2022/05/03 12:00:03;;;;;;;;;;;20.30;62.00;;;;;;5100951;28;19956;-81
2022/05/03 12:02:30;;;;;;;;;;;20.10;58.20;;;;;;5120017;28;20390;-82
2022/05/03 12:05:06;;;;;;;;;;;19.80;58.80;;;;;;5119280;28;20317;-82
2022/05/03 12:07:35;;;;;;;;;;;19.50;58.90;;;;;;5102170;28;19903;-83
2022/05/03 12:10:01;;;;;;;;;;;19.50;59.70;;;;;;5119432;28;19915;-81
2022/05/03 12:12:45;;;;;;;;;;;19.50;58.90;;;;;;5101141;28;19904;-82
2022/05/03 12:15:21;;;;;;;;;;;19.60;57.20;;;;;;5096951;28;19910;-82
2022/05/03 12:18:05;;;;;;;;;;;19.80;58.00;;;;;;5098737;28;19929;-81
2022/05/03 12:21:00;;;;;;;;;;;20.10;57.80;;;;;;5100148;28;19908;-82
2022/05/03 12:23:37;;;;;;;;;;;20.50;56.40;;;;;;5077465;28;19910;-82
2022/05/03 12:26:21;;;;;;;;;;;20.80;56.50;;;;;;5100239;28;19972;-82
2022/05/03 12:28:48;;;;;;;;;;;21.00;53.50;;;;;;5100140;28;19933;-82
2022/05/03 12:31:16;;;;;;;;;;;21.20;52.30;;;;;;5099936;28;19904;-81
2022/05/03 12:33:48;;;;;;;;;;;21.30;51.50;;;;;;5100287;28;19912;-82
2022/05/03 12:36:32;;;;;;;;;;;21.20;53.20;;;;;;5098509;28;19911;-83
2022/05/03 12:39:29;;;;;;;;;;;21.20;52.40;;;;;;5098120;28;19904;-82
2022/05/03 12:42:00;;;;;;;;;;;21.20;52.40;;;;;;5090770;28;19912;-82
2022/05/03 12:44:27;;;;;;;;;;;21.10;52.10;;;;;;5099632;28;19912;-82
2022/05/03 12:47:00;;;;;;;;;;;21.00;54.40;;;;;;5083767;28;19939;-82
2022/05/03 12:49:26;;;;;;;;;;;21.10;54.80;;;;;;5099568;28;19954;-82
2022/05/03 12:51:51;;;;;;;;;;;21.40;54.50;;;;;;5081261;28;20302;-82
2022/05/03 12:54:17;;;;;;;;;;;21.60;56.00;;;;;;5099972;28;20314;-83
2022/05/03 12:59:28;;;;;;;;;;;22.10;50.60;;;;;;5100731;28;20007;-83
2022/05/03 13:01:57;;;;;;;;;;;22.20;49.60;;;;;;5100437;28;19943;-82
2022/05/03 13:04:23;;;;;;;;;;;22.10;49.90;;;;;;5097330;28;19908;-82
2022/05/03 13:06:49;;;;;;;;;;;22.00;54.00;;;;;;5098280;28;19904;-82
2022/05/03 13:09:14;;;;;;;;;;;21.90;56.10;;;;;;5097853;28;20049;-82
2022/05/03 13:11:40;;;;;;;;;;;21.60;57.20;;;;;;5099149;28;20072;-82
2022/05/03 13:14:06;;;;;;;;;;;21.50;52.60;;;;;;5098019;28;19930;-81
2022/05/03 13:16:32;;;;;;;;;;;21.00;55.10;;;;;;5111018;28;19973;-82
2022/05/03 13:18:57;;;;;;;;;;;20.60;56.90;;;;;;5118754;28;20261;-82
2022/05/03 13:21:23;;;;;;;;;;;20.20;57.40;;;;;;5100954;28;20344;-82
2022/05/03 13:23:49;;;;;;;;;;;19.90;58.10;;;;;;5101319;28;19910;-82
2022/05/03 13:26:15;;;;;;;;;;;19.80;60.20;;;;;;5100608;28;19975;-81
2022/05/03 13:28:40;;;;;;;;;;;19.60;62.20;;;;;;5119013;28;19957;-81
2022/05/03 13:31:07;;;;;;;;;;;19.50;63.50;;;;;;5118248;28;19998;-81
2022/05/03 13:33:32;;;;;;;;;;;19.40;64.10;;;;;;5100286;28;19976;-81
2022/05/03 13:41:27;;;;;;;;;;;19.50;64.50;;;;;;5118443;28;19911;-81
2022/05/03 13:43:52;;;;;;;;;;;19.70;64.40;;;;;;5115769;28;19990;-81
2022/05/03 13:46:18;;;;;;;;;;;19.50;62.10;;;;;;5115751;28;20025;-81
2022/05/03 13:48:44;;;;;;;;;;;19.50;65.20;;;;;;5097576;28;19939;-81
2022/05/03 13:51:10;;;;;;;;;;;19.40;65.20;;;;;;5115957;28;19904;-81
2022/05/03 13:53:36;;;;;;;;;;;19.40;64.40;;;;;;5112717;28;19908;-81
2022/05/03 13:56:03;;;;;;;;;;;19.40;64.40;;;;;;5095429;28;19904;-81
2022/05/03 13:58:29;;;;;;;;;;;19.50;65.40;;;;;;5077316;28;19910;-81
2022/05/03 14:00:55;;;;;;;;;;;19.60;63.50;;;;;;5104983;28;20313;-81
2022/05/03 14:03:22;;;;;;;;;;;19.70;61.70;;;;;;5116519;28;20337;-82
2022/05/03 14:05:47;;;;;;;;;;;19.70;63.10;;;;;;5112481;28;19915;-81
2022/05/03 14:08:13;;;;;;;;;;;19.60;62.50;;;;;;5114539;28;19958;-81
2022/05/03 14:10:40;;;;;;;;;;;19.70;61.50;;;;;;5115388;28;19903;-82
2022/05/03 14:13:05;;;;;;;;;;;19.80;63.90;;;;;;5096522;28;19904;-82